Time;durP1;ratioP1;P1;durP2;ratioP2;P2;SDS_P1;SDS_P2;PMS_P1;PMS_P2;Temp;Humidity;BMP_temperature;BMP_pressure;BME280_temperature;BME280_humidity;BME280_pressure;Samples;Min_cycle;Max_cycle;Signal;HPM_P1;HPM_P2
2022/02/25 00:02:06;;;;;;;1999.90;999.90;;;2.90;99.90;;;;;;4993720;28;20186;-75
2022/02/25 00:04:32;;;;;;;1999.90;999.90;;;3.00;99.90;;;;;;4993420;28;20165;-76
2022/02/25 00:06:58;;;;;;;1999.90;999.90;;;3.00;99.90;;;;;;4993633;28;20197;-76
2022/02/25 00:09:23;;;;;;;1999.90;999.90;;;3.00;99.90;;;;;;4993610;28;20166;-76
2022/02/25 00:11:49;;;;;;;1999.90;999.90;;;3.00;99.90;;;;;;4993425;28;20280;-76
2022/02/25 00:14:15;;;;;;;1999.90;999.90;;;3.10;99.90;;;;;;4993253;28;20166;-76
2022/02/25 00:16:41;;;;;;;1999.90;999.90;;;3.10;99.90;;;;;;4993553;28;20205;-76
2022/02/25 00:19:06;;;;;;;1999.90;999.90;;;3.20;99.90;;;;;;4993475;28;20272;-76
2022/02/25 00:21:32;;;;;;;1999.90;999.90;;;3.20;99.90;;;;;;4993344;28;20545;-76
2022/02/25 00:23:58;;;;;;;1999.90;999.90;;;3.20;99.90;;;;;;4993322;28;20174;-76
2022/02/25 00:26:23;;;;;;;1999.90;999.90;;;3.20;99.90;;;;;;4993151;28;20690;-76
2022/02/25 00:28:49;;;;;;;1999.90;999.90;;;3.20;99.90;;;;;;4993314;28;20220;-75
2022/02/25 00:31:15;;;;;;;1999.90;999.90;;;3.20;99.90;;;;;;4993270;28;20185;-75
2022/02/25 00:33:41;;;;;;;1999.90;999.90;;;3.20;99.90;;;;;;4993196;28;20193;-76
2022/02/25 00:36:06;;;;;;;1999.90;999.90;;;3.30;99.90;;;;;;4992924;28;20624;-75
2022/02/25 00:38:32;;;;;;;1999.90;999.90;;;3.30;99.90;;;;;;4993166;28;20407;-75
2022/02/25 00:40:58;;;;;;;1999.90;999.90;;;3.30;99.90;;;;;;4993061;28;20678;-76
2022/02/25 00:43:24;;;;;;;1999.90;999.90;;;3.30;99.90;;;;;;4993074;28;20248;-76
2022/02/25 00:45:50;;;;;;;1999.90;999.90;;;3.30;99.90;;;;;;4992661;28;20460;-75
2022/02/25 00:48:15;;;;;;;1999.90;999.90;;;3.20;99.90;;;;;;4992912;28;20903;-76
2022/02/25 00:50:41;;;;;;;1999.90;999.90;;;3.10;99.90;;;;;;4992924;28;20664;-76
2022/02/25 00:53:07;;;;;;;1999.90;999.90;;;3.10;99.90;;;;;;4992382;28;20201;-75
2022/02/25 00:55:32;;;;;;;1999.90;999.90;;;3.10;99.90;;;;;;4992625;28;20165;-75
2022/02/25 00:57:59;;;;;;;1999.90;999.90;;;3.00;99.90;;;;;;4992881;28;20257;-75
2022/02/25 01:00:26;;;;;;;1999.90;999.90;;;3.00;99.90;;;;;;4991480;28;20174;-76
2022/02/25 01:02:52;;;;;;;1999.90;999.90;;;3.00;99.90;;;;;;4992725;28;20177;-75
2022/02/25 01:05:18;;;;;;;1999.90;999.90;;;3.00;99.90;;;;;;4992376;28;20607;-76
2022/02/25 01:07:46;;;;;;;1999.90;999.90;;;3.00;99.90;;;;;;4992698;28;20176;-76
2022/02/25 01:10:13;;;;;;;1999.90;999.90;;;3.00;99.90;;;;;;4992613;28;20209;-76
2022/02/25 01:12:39;;;;;;;1999.90;999.90;;;3.00;99.90;;;;;;4992582;28;20188;-75
2022/02/25 01:15:06;;;;;;;1999.90;999.90;;;3.10;99.90;;;;;;4992364;28;20170;-76
2022/02/25 01:17:32;;;;;;;1999.90;999.90;;;3.10;99.90;;;;;;4992583;28;20174;-76
2022/02/25 01:19:58;;;;;;;1999.90;999.90;;;3.10;99.90;;;;;;4992660;28;20169;-75
2022/02/25 01:22:25;;;;;;;1999.90;999.90;;;3.10;99.90;;;;;;4992472;28;21024;-75
2022/02/25 01:24:51;;;;;;;1999.90;999.90;;;3.10;99.90;;;;;;4992331;28;20177;-75
2022/02/25 01:27:17;;;;;;;1999.90;999.90;;;3.10;99.90;;;;;;4992491;28;20204;-76
2022/02/25 01:29:43;;;;;;;1999.90;999.90;;;3.10;99.90;;;;;;4992657;28;20197;-75
2022/02/25 01:32:09;;;;;;;1999.90;999.90;;;3.10;99.90;;;;;;4992673;28;20182;-76
2022/02/25 01:34:35;;;;;;;1999.90;999.90;;;3.10;99.90;;;;;;4992159;28;20658;-76
2022/02/25 01:37:01;;;;;;;1999.90;999.90;;;3.10;99.90;;;;;;4992448;28;20980;-75
2022/02/25 01:39:26;;;;;;;1999.90;999.90;;;3.10;99.90;;;;;;4992494;28;20413;-76
2022/02/25 01:41:52;;;;;;;1999.90;999.90;;;3.10;99.90;;;;;;4992356;28;20201;-75
2022/02/25 01:44:20;;;;;;;1999.90;999.90;;;3.20;99.90;;;;;;4992114;28;20412;-75
2022/02/25 01:46:51;;;;;;;1999.90;999.90;;;3.20;99.90;;;;;;4992317;28;20185;-75
2022/02/25 01:49:17;;;;;;;1999.90;999.90;;;3.20;99.90;;;;;;4992350;28;20247;-75
2022/02/25 01:51:44;;;;;;;1999.90;999.90;;;3.10;99.90;;;;;;4992281;28;20675;-75
2022/02/25 01:54:10;;;;;;;1999.90;999.90;;;3.10;99.90;;;;;;4992038;28;20173;-76
2022/02/25 01:56:40;;;;;;;1999.90;999.90;;;3.10;99.90;;;;;;4992323;28;20174;-75
2022/02/25 01:59:06;;;;;;;1999.90;999.90;;;3.10;99.90;;;;;;4992302;28;20189;-75
2022/02/25 02:01:33;;;;;;;1999.90;999.90;;;3.20;99.90;;;;;;4992152;28;20201;-75
2022/02/25 02:03:59;;;;;;;1999.90;999.90;;;3.10;99.90;;;;;;4992692;28;20436;-75
2022/02/25 02:06:25;;;;;;;1999.90;999.90;;;3.10;99.90;;;;;;4995820;28;20197;-75
2022/02/25 02:08:51;;;;;;;1999.90;999.90;;;3.10;99.90;;;;;;4995934;28;20593;-76
2022/02/25 02:11:36;;;;;;;1999.90;999.90;;;3.10;99.90;;;;;;4995663;28;20939;-75
2022/02/25 02:14:05;;;;;;;1999.90;999.90;;;3.10;99.90;;;;;;4995510;28;20166;-75
2022/02/25 02:16:31;;;;;;;1999.90;999.90;;;3.20;99.90;;;;;;4995738;28;20170;-75
2022/02/25 02:18:57;;;;;;;1999.90;999.90;;;3.10;99.90;;;;;;4995737;28;20184;-75
2022/02/25 02:21:26;;;;;;;1999.90;999.90;;;3.10;99.90;;;;;;4995598;28;20526;-75
2022/02/25 02:23:53;;;;;;;1999.90;999.90;;;3.10;99.90;;;;;;4995645;28;20409;-75
2022/02/25 02:26:19;;;;;;;1999.90;999.90;;;3.10;99.90;;;;;;4995253;28;20199;-75
2022/02/25 02:28:45;;;;;;;1999.90;999.90;;;3.10;99.90;;;;;;4995562;28;20194;-75
2022/02/25 02:31:11;;;;;;;1999.90;999.90;;;3.10;99.90;;;;;;4995313;28;20313;-75
2022/02/25 02:33:37;;;;;;;1999.90;999.90;;;3.10;99.90;;;;;;4995462;28;20401;-75
2022/02/25 02:36:06;;;;;;;1999.90;999.90;;;3.10;99.90;;;;;;4995118;28;20169;-75
2022/02/25 02:38:32;;;;;;;1999.90;999.90;;;3.10;99.90;;;;;;4995382;28;20636;-75
2022/02/25 02:40:58;;;;;;;1999.90;999.90;;;3.10;99.90;;;;;;4995213;28;20213;-75
2022/02/25 02:43:24;;;;;;;1999.90;999.90;;;3.10;99.90;;;;;;4995262;28;20585;-75
2022/02/25 02:45:50;;;;;;;1999.90;999.90;;;3.10;99.90;;;;;;4994859;28;20197;-75
2022/02/25 02:48:15;;;;;;;1999.90;999.90;;;3.10;99.90;;;;;;4995294;28;20166;-75
2022/02/25 02:50:41;;;;;;;1999.90;999.90;;;3.00;99.90;;;;;;4995110;28;20213;-75
2022/02/25 02:53:07;;;;;;;1999.90;999.90;;;3.10;99.90;;;;;;4995127;28;20590;-75
2022/02/25 02:55:33;;;;;;;1999.90;999.90;;;3.00;99.90;;;;;;4994796;28;20166;-74
2022/02/25 02:57:59;;;;;;;1999.90;999.90;;;3.00;99.90;;;;;;4995048;28;20213;-75
2022/02/25 03:00:25;;;;;;;1999.90;999.90;;;3.00;99.90;;;;;;4994865;28;20209;-75
2022/02/25 03:02:50;;;;;;;1999.90;999.90;;;3.00;99.90;;;;;;4994898;28;20412;-75
2022/02/25 03:05:18;;;;;;;1999.90;999.90;;;3.00;99.90;;;;;;4994544;28;20520;-75
2022/02/25 03:07:45;;;;;;;1999.90;999.90;;;2.90;99.90;;;;;;4994850;28;20162;-75
2022/02/25 03:10:12;;;;;;;1999.90;999.90;;;2.90;99.90;;;;;;4994785;28;20254;-75
2022/02/25 03:12:38;;;;;;;1999.90;999.90;;;2.80;99.90;;;;;;4994616;28;20729;-75
2022/02/25 03:15:05;;;;;;;1999.90;999.90;;;2.80;99.90;;;;;;4993917;28;20201;-75
2022/02/25 03:17:32;;;;;;;1999.90;999.90;;;2.70;99.90;;;;;;4994670;28;20682;-75
2022/02/25 03:19:58;;;;;;;1999.90;999.90;;;2.70;99.90;;;;;;4994611;28;20170;-74
2022/02/25 03:22:25;;;;;;;1999.90;999.90;;;2.70;99.90;;;;;;4994465;28;20685;-74
2022/02/25 03:24:52;;;;;;;1999.90;999.90;;;2.60;99.90;;;;;;4994200;28;20173;-75
2022/02/25 03:27:18;;;;;;;1999.90;999.90;;;2.60;99.90;;;;;;4994391;28;20194;-75
2022/02/25 03:29:43;;;;;;;1999.90;999.90;;;2.70;99.90;;;;;;4994448;28;20173;-75
2022/02/25 03:32:09;;;;;;;1999.90;999.90;;;2.60;99.90;;;;;;4994372;28;20507;-74
2022/02/25 03:34:35;;;;;;;1999.90;999.90;;;2.70;99.90;;;;;;4994056;28;20659;-75
2022/02/25 03:37:01;;;;;;;1999.90;999.90;;;2.60;99.90;;;;;;4994321;28;20416;-75
2022/02/25 03:39:26;;;;;;;1999.90;999.90;;;2.60;99.90;;;;;;4994312;28;20182;-75
2022/02/25 03:41:52;;;;;;;1999.90;999.90;;;2.70;99.90;;;;;;4994098;28;20192;-75
2022/02/25 03:44:17;;;;;;;1999.90;999.90;;;2.60;99.90;;;;;;4993817;28;20314;-75
2022/02/25 03:46:43;;;;;;;1999.90;999.90;;;2.60;99.90;;;;;;4994115;28;20208;-75
2022/02/25 03:49:09;;;;;;;1999.90;999.90;;;2.60;99.90;;;;;;4994121;28;20758;-75
2022/02/25 03:51:34;;;;;;;1999.90;999.90;;;2.60;99.90;;;;;;4993950;28;20233;-75
2022/02/25 03:54:00;;;;;;;1999.90;999.90;;;2.50;99.90;;;;;;4993754;28;20209;-75
2022/02/25 03:56:26;;;;;;;1999.90;999.90;;;2.60;99.90;;;;;;4993760;28;20201;-75
2022/02/25 03:58:52;;;;;;;1999.90;999.90;;;2.60;99.90;;;;;;4993838;28;20174;-75
2022/02/25 04:01:19;;;;;;;1999.90;999.90;;;2.60;99.90;;;;;;4993808;28;20196;-75
2022/02/25 04:03:44;;;;;;;1999.90;999.90;;;2.60;99.90;;;;;;4993740;28;20170;-75
2022/02/25 04:06:10;;;;;;;1999.90;999.90;;;2.60;99.90;;;;;;4993410;28;20738;-75
2022/02/25 04:08:35;;;;;;;1999.90;999.90;;;2.50;99.90;;;;;;4993691;28;20162;-75
2022/02/25 04:11:01;;;;;;;1999.90;999.90;;;2.40;99.90;;;;;;4993400;28;20208;-75
2022/02/25 04:13:27;;;;;;;1999.90;999.90;;;2.40;99.90;;;;;;4993575;28;20166;-75
2022/02/25 04:15:53;;;;;;;1999.90;999.90;;;2.40;99.90;;;;;;4993381;28;20173;-75
2022/02/25 04:18:18;;;;;;;1999.90;999.90;;;2.40;99.90;;;;;;4993499;28;20471;-75
2022/02/25 04:20:44;;;;;;;1999.90;999.90;;;2.40;99.90;;;;;;4993378;28;20200;-75
2022/02/25 04:23:09;;;;;;;1999.90;999.90;;;2.40;99.90;;;;;;4993415;28;20205;-75
2022/02/25 04:25:35;;;;;;;1999.90;999.90;;;2.40;99.90;;;;;;4993026;28;20232;-75
2022/02/25 04:28:02;;;;;;;1999.90;999.90;;;2.50;99.90;;;;;;4992590;28;20166;-75
2022/02/25 04:30:28;;;;;;;1999.90;999.90;;;2.60;99.90;;;;;;4993247;28;20166;-75
2022/02/25 04:32:54;;;;;;;1999.90;999.90;;;2.60;99.90;;;;;;4993304;28;20166;-75
2022/02/25 04:35:20;;;;;;;1999.90;999.90;;;2.60;99.90;;;;;;4992958;28;20170;-75
2022/02/25 04:37:46;;;;;;;1999.90;999.90;;;2.60;99.90;;;;;;4993200;28;20957;-75
2022/02/25 04:40:12;;;;;;;1999.90;999.90;;;2.60;99.90;;;;;;4993058;28;20170;-75
2022/02/25 04:42:38;;;;;;;1999.90;999.90;;;2.60;99.90;;;;;;5012609;22;20400;-76
2022/02/25 04:45:06;;;;;;;1999.90;999.90;;;2.60;99.90;;;;;;5032473;28;20172;-77
2022/02/25 04:47:31;;;;;;;1999.90;999.90;;;2.70;99.90;;;;;;5032286;28;20206;-77
2022/02/25 04:49:57;;;;;;;1999.90;999.90;;;2.70;99.90;;;;;;5032329;28;20251;-77
2022/02/25 04:52:24;;;;;;;1999.90;999.90;;;2.70;99.90;;;;;;5032236;28;20429;-77
2022/02/25 04:54:50;;;;;;;1999.90;999.90;;;2.80;99.90;;;;;;5032025;28;20634;-76
2022/02/25 04:57:16;;;;;;;1999.90;999.90;;;2.70;99.90;;;;;;5032212;28;20573;-77
2022/02/25 04:59:42;;;;;;;1999.90;999.90;;;2.60;99.90;;;;;;5032165;28;20177;-77
2022/02/25 05:02:08;;;;;;;1999.90;999.90;;;2.70;99.90;;;;;;5032134;28;20173;-77
2022/02/25 05:04:33;;;;;;;1999.90;999.90;;;2.70;99.90;;;;;;5031776;28;20530;-77
2022/02/25 05:06:59;;;;;;;1999.90;999.90;;;2.70;99.90;;;;;;5032061;28;20450;-76
2022/02/25 05:09:24;;;;;;;1999.90;999.90;;;2.70;99.90;;;;;;5032042;28;20161;-76
2022/02/25 05:11:50;;;;;;;1999.90;999.90;;;2.70;99.90;;;;;;5032043;28;20175;-76
2022/02/25 05:22:28;;;;;;;1999.90;999.90;;;2.70;99.90;;;;;;5031915;28;20710;-77
2022/02/25 05:24:55;;;;;;;1999.90;999.90;;;2.70;99.90;;;;;;5031604;28;20258;-77
2022/02/25 05:27:20;;;;;;;1999.90;999.90;;;2.70;99.90;;;;;;5031744;28;20684;-77
2022/02/25 05:29:49;;;;;;;1999.90;999.90;;;2.70;99.90;;;;;;5031865;28;20169;-77
2022/02/25 05:32:15;;;;;;;1999.90;999.90;;;2.70;99.90;;;;;;5031923;28;20176;-76
2022/02/25 05:34:41;;;;;;;1999.90;999.90;;;2.70;99.90;;;;;;5031536;28;20169;-77
2022/02/25 05:37:07;;;;;;;1999.90;999.90;;;2.70;99.90;;;;;;5031802;28;20168;-77
2022/02/25 05:39:33;;;;;;;1999.90;999.90;;;2.70;99.90;;;;;;5035142;28;20177;-77
2022/02/25 05:41:59;;;;;;;1999.90;999.90;;;2.70;99.90;;;;;;5035767;28;20172;-77
2022/02/25 05:44:24;;;;;;;1999.90;999.90;;;2.80;99.90;;;;;;5035355;28;20216;-77
2022/02/25 05:46:50;;;;;;;1999.90;999.90;;;2.80;99.90;;;;;;5035641;28;20282;-77
2022/02/25 05:49:15;;;;;;;1999.90;999.90;;;2.80;99.90;;;;;;5035774;28;20183;-77
2022/02/25 05:51:41;;;;;;;1999.90;999.90;;;2.80;99.90;;;;;;5035621;28;20168;-77
2022/02/25 05:54:07;;;;;;;1999.90;999.90;;;2.80;99.90;;;;;;5035228;28;20246;-77
2022/02/25 05:56:32;;;;;;;1999.90;999.90;;;2.90;99.90;;;;;;5035542;28;20560;-77
2022/02/25 05:58:58;;;;;;;1999.90;999.90;;;2.90;99.90;;;;;;5035463;28;20230;-77
2022/02/25 06:01:23;;;;;;;1999.90;999.90;;;2.80;99.90;;;;;;5035435;28;20173;-77
2022/02/25 06:03:49;;;;;;;1999.90;999.90;;;2.90;99.90;;;;;;5035287;28;20592;-77
2022/02/25 06:06:15;;;;;;;1999.90;999.90;;;2.90;99.90;;;;;;5035010;28;20238;-77
2022/02/25 06:08:41;;;;;;;1999.90;999.90;;;2.90;99.90;;;;;;5035304;28;20177;-77
2022/02/25 06:11:07;;;;;;;1999.90;999.90;;;2.90;99.90;;;;;;5035215;28;20884;-77
2022/02/25 06:13:33;;;;;;;1999.90;999.90;;;2.90;99.90;;;;;;5035165;28;20235;-77
2022/02/25 06:15:58;;;;;;;1999.90;999.90;;;2.90;99.90;;;;;;5034896;28;20558;-77
2022/02/25 06:18:24;;;;;;;1999.90;999.90;;;3.00;99.90;;;;;;5035146;28;20460;-77
2022/02/25 06:20:50;;;;;;;1999.90;999.90;;;3.00;99.90;;;;;;5035068;28;20200;-77
2022/02/25 06:23:18;;;;;;;1999.90;999.90;;;3.10;99.90;;;;;;5035026;28;20250;-77
2022/02/25 06:25:43;;;;;;;1999.90;999.90;;;3.10;99.90;;;;;;5034588;28;20203;-77
2022/02/25 06:28:09;;;;;;;1999.90;999.90;;;3.10;99.90;;;;;;5035003;28;20172;-77
2022/02/25 06:30:34;;;;;;;1999.90;999.90;;;3.10;99.90;;;;;;5034875;28;20175;-77
2022/02/25 06:33:00;;;;;;;1999.90;999.90;;;3.10;99.90;;;;;;5034805;28;20576;-77
2022/02/25 06:35:28;;;;;;;1999.90;999.90;;;3.20;99.90;;;;;;5034587;28;20571;-77
2022/02/25 06:37:55;;;;;;;1999.90;999.90;;;3.20;99.90;;;;;;5034661;28;20281;-77
2022/02/25 06:40:21;;;;;;;1999.90;999.90;;;3.20;99.90;;;;;;5034630;28;20169;-76
2022/02/25 06:42:46;;;;;;;1999.90;999.90;;;3.20;99.90;;;;;;5034367;28;20207;-76
2022/02/25 06:45:12;;;;;;;1999.90;999.90;;;3.20;99.90;;;;;;5033051;28;20164;-77
2022/02/25 06:47:38;;;;;;;1999.90;999.90;;;3.20;99.90;;;;;;5034553;28;20669;-77
2022/02/25 06:50:05;;;;;;;1999.90;999.90;;;3.30;99.90;;;;;;5033681;28;20426;-77
2022/02/25 06:52:31;;;;;;;1999.90;999.90;;;3.40;99.90;;;;;;5034445;28;20160;-77
2022/02/25 06:54:56;;;;;;;1999.90;999.90;;;3.40;99.90;;;;;;5034047;28;20173;-77
2022/02/25 06:57:22;;;;;;;1999.90;999.90;;;3.40;99.90;;;;;;5034420;28;20556;-77
2022/02/25 06:59:47;;;;;;;1999.90;999.90;;;3.40;99.90;;;;;;5034321;28;20176;-77
2022/02/25 07:02:13;;;;;;;1999.90;999.90;;;3.50;99.90;;;;;;5034477;28;20169;-77
2022/02/25 07:04:39;;;;;;;1999.90;999.90;;;3.50;99.90;;;;;;5033926;28;20184;-77
2022/02/25 07:07:05;;;;;;;1999.90;999.90;;;3.40;99.90;;;;;;5034170;28;20196;-77
2022/02/25 07:09:30;;;;;;;1999.90;999.90;;;3.50;99.90;;;;;;5034152;28;20255;-77
2022/02/25 07:11:56;;;;;;;1999.90;999.90;;;3.60;99.90;;;;;;5034178;28;20187;-77
2022/02/25 07:14:22;;;;;;;1999.90;999.90;;;3.60;99.90;;;;;;5033688;28;20219;-77
2022/02/25 07:16:47;;;;;;;1999.90;999.90;;;3.60;99.90;;;;;;5034097;28;20176;-76
2022/02/25 07:19:13;;;;;;;1999.90;999.90;;;3.70;99.90;;;;;;5034053;28;20263;-77
2022/02/25 07:21:38;;;;;;;1999.90;999.90;;;3.70;99.90;;;;;;5033986;28;20207;-77
2022/02/25 07:24:04;;;;;;;1999.90;999.90;;;3.80;99.90;;;;;;5033518;28;20188;-77
2022/02/25 07:26:30;;;;;;;1999.90;999.90;;;3.80;99.90;;;;;;5033815;28;20204;-76
2022/02/25 07:28:56;;;;;;;1999.90;999.90;;;3.90;99.90;;;;;;5033771;28;20794;-77
2022/02/25 07:31:22;;;;;;;1999.90;999.90;;;3.80;99.90;;;;;;5033839;28;20403;-77
2022/02/25 07:33:47;;;;;;;1999.90;999.90;;;3.80;99.90;;;;;;5033631;28;20659;-77
2022/02/25 07:36:13;;;;;;;1999.90;999.90;;;3.80;99.90;;;;;;5033402;28;20450;-77
2022/02/25 07:38:39;;;;;;;1999.90;999.90;;;3.80;99.90;;;;;;5033680;28;20221;-76
2022/02/25 07:41:04;;;;;;;1999.90;999.90;;;3.90;99.90;;;;;;5033666;28;20221;-77
2022/02/25 07:43:30;;;;;;;1999.90;999.90;;;3.90;99.90;;;;;;5033396;28;20219;-76
2022/02/25 07:45:56;;;;;;;1999.90;999.90;;;4.00;99.90;;;;;;5033361;28;20665;-77
2022/02/25 07:48:22;;;;;;;1999.90;999.90;;;4.10;99.90;;;;;;5033499;28;20173;-76
2022/02/25 07:50:48;;;;;;;1999.90;999.90;;;4.10;99.90;;;;;;5033418;28;20206;-76
2022/02/25 07:53:15;;;;;;;1999.90;999.90;;;4.20;99.90;;;;;;5033225;28;20442;-76
2022/02/25 07:55:41;;;;;;;1999.90;999.90;;;4.30;99.90;;;;;;5032811;28;20461;-76
2022/02/25 07:58:07;;;;;;;1999.90;999.90;;;4.30;99.90;;;;;;5033156;28;20411;-77
2022/02/25 08:00:33;;;;;;;1999.90;999.90;;;4.30;99.90;;;;;;5033189;28;20507;-76
2022/02/25 08:03:01;;;;;;;1999.90;999.90;;;4.30;99.90;;;;;;5033016;28;20188;-76
2022/02/25 08:05:28;;;;;;;1999.90;999.90;;;4.20;99.90;;;;;;5032872;28;20502;-76
2022/02/25 08:07:56;;;;;;;1999.90;999.90;;;4.10;99.90;;;;;;5033008;28;20184;-76
2022/02/25 08:10:21;;;;;;;1999.90;999.90;;;4.10;99.90;;;;;;5033068;28;20505;-76
2022/02/25 08:12:47;;;;;;;1999.90;999.90;;;4.10;99.90;;;;;;5032881;28;20198;-76
2022/02/25 08:15:14;;;;;;;1999.90;999.90;;;4.10;99.90;;;;;;5032681;28;20203;-76
2022/02/25 08:17:39;;;;;;;1999.90;999.90;;;4.10;99.90;;;;;;5032891;28;20169;-76
2022/02/25 08:20:07;;;;;;;1999.90;999.90;;;4.20;99.90;;;;;;5033123;28;20229;-76
2022/02/25 08:22:33;;;;;;;1999.90;999.90;;;4.20;99.90;;;;;;5032721;28;20169;-76
2022/02/25 08:24:59;;;;;;;1999.90;999.90;;;4.30;99.90;;;;;;5032694;28;20546;-76
2022/02/25 08:27:24;;;;;;;1999.90;999.90;;;4.20;99.90;;;;;;5032596;28;20455;-76
2022/02/25 08:29:50;;;;;;;1999.90;999.90;;;4.20;99.90;;;;;;5032716;28;20183;-76
2022/02/25 08:32:16;;;;;;;1999.90;999.90;;;4.20;99.90;;;;;;5032688;28;20190;-76
2022/02/25 08:34:41;;;;;;;1999.90;999.90;;;4.10;99.90;;;;;;5032278;28;20838;-76
2022/02/25 08:37:07;;;;;;;1999.90;999.90;;;4.10;99.90;;;;;;5032541;28;20176;-76
2022/02/25 08:39:33;;;;;;;1999.90;999.90;;;4.10;99.90;;;;;;5032526;28;20199;-76
2022/02/25 08:41:58;;;;;;;1999.90;999.90;;;4.20;99.90;;;;;;5032432;28;20176;-76
2022/02/25 08:44:24;;;;;;;1999.90;999.90;;;4.30;99.90;;;;;;5031948;28;20204;-76
2022/02/25 08:46:50;;;;;;;1999.90;999.90;;;4.30;99.90;;;;;;5032305;28;20204;-76
2022/02/25 08:49:16;;;;;;;1999.90;999.90;;;4.30;99.90;;;;;;5032339;28;20176;-76
2022/02/25 08:51:43;;;;;;;1999.90;999.90;;;4.30;99.90;;;;;;5032317;28;20821;-76
2022/02/25 08:54:12;;;;;;;1999.90;999.90;;;4.30;99.90;;;;;;5031868;28;20797;-76
2022/02/25 08:56:38;;;;;;;1999.90;999.90;;;4.30;99.90;;;;;;5032298;28;20168;-76
2022/02/25 08:59:04;;;;;;;1999.90;999.90;;;4.30;99.90;;;;;;5032188;28;20164;-76
2022/02/25 09:01:30;;;;;;;1999.90;999.90;;;4.30;99.90;;;;;;5032227;28;20173;-76
2022/02/25 09:03:55;;;;;;;1999.90;999.90;;;4.40;99.90;;;;;;5032095;28;20195;-76
2022/02/25 09:06:22;;;;;;;1999.90;999.90;;;4.40;99.90;;;;;;5031917;28;20818;-76
2022/02/25 09:08:47;;;;;;;1999.90;999.90;;;4.50;99.90;;;;;;5032042;28;20160;-76
2022/02/25 09:11:13;;;;;;;1999.90;999.90;;;4.50;99.90;;;;;;5032092;28;20413;-75
2022/02/25 09:13:40;;;;;;;1999.90;999.90;;;4.50;99.90;;;;;;5033090;28;20191;-76
2022/02/25 09:16:08;;;;;;;1999.90;999.90;;;4.60;99.90;;;;;;5032832;28;20708;-76
2022/02/25 09:18:33;;;;;;;1999.90;999.90;;;4.60;99.90;;;;;;5033182;28;20461;-76
2022/02/25 09:20:59;;;;;;;1999.90;999.90;;;4.70;99.90;;;;;;5033043;28;20188;-76
2022/02/25 09:23:25;;;;;;;1999.90;999.90;;;4.70;99.90;;;;;;5033337;28;20183;-76
2022/02/25 09:25:51;;;;;;;1999.90;999.90;;;4.80;99.90;;;;;;5032348;28;20697;-76
2022/02/25 09:28:17;;;;;;;1999.90;999.90;;;4.80;99.90;;;;;;5033677;28;20403;-76
2022/02/25 09:30:42;;;;;;;1999.90;999.90;;;4.70;99.90;;;;;;5031393;28;20626;-76
2022/02/25 09:33:08;;;;;;;1999.90;999.90;;;4.80;99.90;;;;;;5033045;28;20199;-76
2022/02/25 09:35:34;;;;;;;1999.90;999.90;;;4.70;99.90;;;;;;5034301;28;20623;-77
2022/02/25 09:37:59;;;;;;;1999.90;999.90;;;4.80;99.90;;;;;;5032345;28;20489;-76
2022/02/25 09:40:25;;;;;;;1999.90;999.90;;;4.80;99.90;;;;;;5032014;28;20168;-76
2022/02/25 09:42:51;;;;;;;1999.90;999.90;;;4.90;99.90;;;;;;5033117;28;20196;-76
2022/02/25 09:45:18;;;;;;;1999.90;999.90;;;5.00;99.90;;;;;;5030649;28;20258;-76
2022/02/25 09:47:44;;;;;;;1999.90;999.90;;;5.10;99.90;;;;;;5030247;28;20473;-76
2022/02/25 09:50:16;;;;;;;1999.90;999.90;;;5.20;99.90;;;;;;5031147;28;20287;-75
2022/02/25 09:52:42;;;;;;;1999.90;999.90;;;5.30;99.90;;;;;;5031478;28;20734;-76
2022/02/25 09:55:26;;;;;;;1999.90;999.90;;;5.40;99.90;;;;;;5030691;28;20399;-76
2022/02/25 09:57:53;;;;;;;1999.90;999.90;;;5.50;99.90;;;;;;5033016;28;20415;-76
2022/02/25 10:00:20;;;;;;;1999.90;999.90;;;5.60;99.90;;;;;;5033732;28;20409;-77
2022/02/25 10:02:49;;;;;;;1999.90;999.90;;;5.60;99.90;;;;;;5038650;28;20486;-76
2022/02/25 10:05:20;;;;;;;1999.90;999.90;;;5.70;99.90;;;;;;5037418;28;20407;-77
2022/02/25 10:07:46;;;;;;;1999.90;999.90;;;5.80;99.90;;;;;;5036480;28;20597;-76
2022/02/25 10:10:13;;;;;;;1999.90;999.90;;;5.80;99.90;;;;;;5036703;28;20453;-77
2022/02/25 10:12:45;;;;;;;1999.90;999.90;;;5.80;99.90;;;;;;5035759;28;20480;-77
2022/02/25 10:15:11;;;;;;;1999.90;999.90;;;5.90;99.90;;;;;;5033659;28;20418;-77
2022/02/25 10:17:37;;;;;;;1999.90;999.90;;;6.00;99.90;;;;;;5035063;28;20403;-77
2022/02/25 10:20:07;;;;;;;1999.90;999.90;;;6.10;99.90;;;;;;5033848;28;20418;-77
2022/02/25 10:22:45;;;;;;;1999.90;999.90;;;6.20;99.90;;;;;;5032373;28;20556;-77
2022/02/25 10:25:11;;;;;;;1999.90;999.90;;;6.30;99.90;;;;;;5034839;28;20768;-77
2022/02/25 10:27:44;;;;;;;1999.90;999.90;;;6.40;99.90;;;;;;5039227;28;20494;-77
2022/02/25 10:30:18;;;;;;;1999.90;999.90;;;6.40;99.90;;;;;;5036478;28;20493;-77
2022/02/25 10:32:55;;;;;;;1999.90;999.90;;;6.50;99.90;;;;;;5037051;28;20462;-77
2022/02/25 10:35:39;;;;;;;1999.90;999.90;;;6.60;99.90;;;;;;5037280;28;20748;-77
2022/02/25 10:38:16;;;;;;;1999.90;999.90;;;6.60;99.90;;;;;;5038266;28;20453;-77
2022/02/25 10:40:50;;;;;;;1999.90;999.90;;;6.70;99.90;;;;;;5036206;28;20403;-77
2022/02/25 10:43:17;;;;;;;1999.90;999.90;;;6.70;99.90;;;;;;5037189;28;20524;-77
2022/02/25 10:46:11;;;;;;;1999.90;999.90;;;6.80;99.90;;;;;;5070866;22;21007;-72
2022/02/25 10:48:46;;;;;;;1999.90;999.90;;;6.90;99.90;;;;;;5013950;28;20427;-72
2022/02/25 10:51:38;;;;;;;1999.90;999.90;;;7.00;99.90;;;;;;5029761;28;20420;-72
2022/02/25 11:02:56;;;;;;;1999.90;999.90;;;6.80;99.90;;;;;;5154867;22;20848;-75
2022/02/25 11:05:42;;;;;;;1999.90;999.90;;;6.80;99.90;;;;;;5039993;28;20530;-75
2022/02/25 11:08:38;;;;;;;1999.90;999.90;;;7.00;99.90;;;;;;5033803;28;20433;-75
2022/02/25 11:11:35;;;;;;;1999.90;999.90;;;6.90;99.90;;;;;;5033891;28;20411;-75
2022/02/25 11:14:42;;;;;;;1999.90;999.90;;;6.70;99.90;;;;;;5033617;28;20439;-75
2022/02/25 11:17:38;;;;;;;1999.90;999.90;;;6.80;99.90;;;;;;5033339;28;20797;-74
2022/02/25 11:20:06;;;;;;;1999.90;999.90;;;7.10;99.90;;;;;;5033598;28;20494;-74
2022/02/25 11:22:36;;;;;;;1999.90;999.90;;;6.60;99.90;;;;;;5034773;28;20414;-74
2022/02/25 11:25:02;;;;;;;1999.90;999.90;;;6.60;99.90;;;;;;5034171;28;20423;-74
2022/02/25 11:27:27;;;;;;;1999.90;999.90;;;6.70;99.90;;;;;;5036720;28;20463;-74
2022/02/25 11:30:07;;;;;;;1999.90;999.90;;;6.80;99.90;;;;;;5037978;28;20415;-75
2022/02/25 11:32:40;;;;;;;1999.90;999.90;;;7.00;99.90;;;;;;5037652;28;20173;-74
2022/02/25 11:35:34;;;;;;;1999.90;999.90;;;7.20;99.90;;;;;;5035278;28;20480;-74
2022/02/25 11:38:00;;;;;;;1999.90;999.90;;;7.30;99.90;;;;;;5034544;28;20415;-74
2022/02/25 11:40:49;;;;;;;1999.90;999.90;;;7.30;99.90;;;;;;5035208;28;20831;-75
2022/02/25 11:43:15;;;;;;;1999.90;999.90;;;7.70;99.90;;;;;;5032230;28;20267;-74
2022/02/25 11:45:49;;;;;;;1999.90;999.90;;;8.20;99.90;;;;;;5033660;28;20927;-73
2022/02/25 11:48:21;;;;;;;1999.90;999.90;;;8.70;99.90;;;;;;5033365;28;20829;-74
2022/02/25 11:50:51;;;;;;;1999.90;999.90;;;8.70;99.90;;;;;;5033971;28;20412;-74
2022/02/25 11:53:25;;;;;;;1999.90;999.90;;;8.60;99.90;;;;;;5033382;28;20506;-74
2022/02/25 11:55:52;;;;;;;1999.90;999.90;;;8.70;99.90;;;;;;5033220;28;20427;-75
2022/02/25 11:58:49;;;;;;;1999.90;999.90;;;8.80;99.90;;;;;;5033985;28;20437;-74
2022/02/25 12:01:19;;;;;;;1999.90;999.90;;;8.80;99.90;;;;;;5034588;28;20862;-74
2022/02/25 12:04:16;;;;;;;1999.90;999.90;;;9.50;99.90;;;;;;5033341;28;20518;-74
2022/02/25 12:06:56;;;;;;;1999.90;999.90;;;10.10;99.90;;;;;;5032063;28;20465;-74
2022/02/25 12:09:41;;;;;;;1999.90;999.90;;;10.30;99.90;;;;;;5032935;28;20410;-73
2022/02/25 12:12:23;;;;;;;1999.90;999.90;;;10.00;99.90;;;;;;5032226;28;20439;-73
2022/02/25 12:15:15;;;;;;;1999.90;999.90;;;9.20;99.90;;;;;;5031040;28;20443;-74
2022/02/25 12:17:54;;;;;;;1999.90;999.90;;;8.60;99.90;;;;;;5033082;28;20442;-73
2022/02/25 12:20:25;;;;;;;1999.90;999.90;;;8.40;99.90;;;;;;5032622;28;20465;-73
2022/02/25 12:23:03;;;;;;;1999.90;999.90;;;8.10;99.90;;;;;;5031822;28;20407;-72
2022/02/25 12:25:57;;;;;;;1999.90;999.90;;;8.00;99.90;;;;;;5032462;28;20451;-74
2022/02/25 12:28:22;;;;;;;1999.90;999.90;;;7.70;99.90;;;;;;5032710;28;20419;-75
2022/02/25 12:30:54;;;;;;;1999.90;999.90;;;7.50;99.90;;;;;;5033237;28;20417;-75